Bookmark and Share
Track history (hours):
 

Admiral

More information available from US FCC via Universal Licensing System and Coast Guard Vessel Documentation Center.

Last reported at 2014-Apr-24 13:33 UTC. Time now 2014-Apr-24 14:11 UTC.
Position N 33°44' W 118°16'.

; draft 5.3 m.

Type: Tug. MMSI: 366755020.

NotesDate/timePositionNaut miles runAvg speedWind from/ knotsBaromVisibWave heightAir tempDewpointWater temp
2014-Apr-24 13:33N 33°44' W 118°16'1 0.9
2014-Apr-24 12:27N 33°43' W 118°15'2 1.7
2014-Apr-24 11:17N 33°44' W 118°17'0 0.0
2014-Apr-24 10:18N 33°44' W 118°17'0 0.0
2014-Apr-24 09:33N 33°44' W 118°17'0 0.0
2014-Apr-24 08:32N 33°44' W 118°17'0 0.0
2014-Apr-24 07:30N 33°44' W 118°17'0 0.0
2014-Apr-24 06:33N 33°44' W 118°17'0 0.0
2014-Apr-24 05:33N 33°44' W 118°17'0 0.0
2014-Apr-24 04:34N 33°44' W 118°17'0 0.0
2014-Apr-24 03:26N 33°44' W 118°17'0 0.0
2014-Apr-24 02:33N 33°44' W 118°17'0 0.0
2014-Apr-24 01:12N 33°44' W 118°17'2 2.7
2014-Apr-24 00:26N 33°46' W 118°15'2 2.0
2014-Apr-23 23:32N 33°45' W 118°17'1 0.0
2014-Apr-22 12:09N 33°45' W 118°16'3 3.9
2014-Apr-22 11:25N 33°43' W 118°15'2 2.6
2014-Apr-22 10:31N 33°44' W 118°17'0 0.0
2014-Apr-22 09:12N 33°44' W 118°17'0 0.0
2014-Apr-22 08:28N 33°44' W 118°17'0 0.0
2014-Apr-22 07:33N 33°44' W 118°17'0 0.0
2014-Apr-22 06:30N 33°44' W 118°17'0 0.0
2014-Apr-22 05:33N 33°44' W 118°17'1 1.3
2014-Apr-22 04:33N 33°45' W 118°16'2 1.8
2014-Apr-22 03:33N 33°44' W 118°16'2 2.2
2014-Apr-22 02:34N 33°43' W 118°14'2 1.8
2014-Apr-22 01:33N 33°45' W 118°13'1 0.6
2014-Apr-22 00:33N 33°44' W 118°13'1 0.6
2014-Apr-21 23:33N 33°45' W 118°13'0 0.4
2014-Apr-21 22:33N 33°45' W 118°13'1 0.5
2014-Apr-21 21:27N 33°45' W 118°13'1 1.3
2014-Apr-21 20:32N 33°44' W 118°12'2 1.2
2014-Apr-21 18:34N 33°43' W 118°15'2 2.0
2014-Apr-21 17:34N 33°44' W 118°17'0 0.0
2014-Apr-21 16:33N 33°44' W 118°17'0 0.0
2014-Apr-21 13:33N 33°44' W 118°17'1 1.1
2014-Apr-21 12:31N 33°44' W 118°16'0 0.3
2014-Apr-21 11:30N 33°43' W 118°16'0 0.1
2014-Apr-21 10:32N 33°43' W 118°16'3 2.8
2014-Apr-21 09:30N 33°45' W 118°12'2 2.4
2014-Apr-21 08:31N 33°43' W 118°14'2 2.3
2014-Apr-21 07:26N 33°44' W 118°17'0 0.0
2014-Apr-21 06:23N 33°44' W 118°17'0 0.0
2014-Apr-21 05:33N 33°44' W 118°17'0 0.0
2014-Apr-21 04:33N 33°44' W 118°17'0 0.0
2014-Apr-21 03:32N 33°44' W 118°17'0 0.0
2014-Apr-21 02:32N 33°44' W 118°17'0 0.0
2014-Apr-21 01:33N 33°44' W 118°17'0 0.0
2014-Apr-21 00:33N 33°44' W 118°17'0 0.0
2014-Apr-20 23:33N 33°44' W 118°17'0 0.0
2014-Apr-20 22:33N 33°44' W 118°17'0 0.0
2014-Apr-20 21:34N 33°44' W 118°17'0 0.0
2014-Apr-20 20:28N 33°44' W 118°17'0 0.0
2014-Apr-20 19:16N 33°44' W 118°17'0 0.0
2014-Apr-20 15:30N 33°44' W 118°17'0 0.0
2014-Apr-19 23:19N 33°44' W 118°17'0 0.0
2014-Apr-19 22:30N 33°44' W 118°17'3 0.1
2014-Apr-17 21:33N 33°45' W 118°13'3 1.2
2014-Apr-17 19:20N 33°43' W 118°15'0 0.3
2014-Apr-17 18:05N 33°43' W 118°15'2 2.9
2014-Apr-17 17:26N 33°44' W 118°17'1 0.1
2014-Apr-17 12:30N 33°44' W 118°17'1 1.4
2014-Apr-17 11:33N 33°46' W 118°16'1 0.2
2014-Apr-17 04:26N 33°44' W 118°17'0 0.0
2014-Apr-17 03:08N 33°44' W 118°17'0 0.7
2014-Apr-17 02:33N 33°45' W 118°16'3 2.5
2014-Apr-17 01:14N 33°46' W 118°13'2 2.6
2014-Apr-17 00:33N 33°45' W 118°13'3 2.1
2014-Apr-16 23:19N 33°44' W 118°10'0 0.2
2014-Apr-16 22:23N 33°44' W 118°10'1 1.7
2014-Apr-16 21:29N 33°44' W 118°12'1 1.0
2014-Apr-16 20:14N 33°45' W 118°13'1 0.8
2014-Apr-16 19:06N 33°44' W 118°13'3 5.2
2014-Apr-16 18:30N 33°44' W 118°17'0 0.3
2014-Apr-16 17:33N 33°44' W 118°17'0 0.0
2014-Apr-16 15:32N 33°44' W 118°17'0 0.1
2014-Apr-16 13:33N 33°45' W 118°17'0 0.1
2014-Apr-16 12:33N 33°45' W 118°17'2 1.5
2014-Apr-16 11:33N 33°44' W 118°15'1 1.2
2014-Apr-16 10:33N 33°43' W 118°16'1 1.1
2014-Apr-16 09:22N 33°44' W 118°17'0 0.0
2014-Apr-16 08:32N 33°44' W 118°17'0 0.0
2014-Apr-16 07:33N 33°44' W 118°17'0 0.0
2014-Apr-16 06:25N 33°44' W 118°17'0 0.0
2014-Apr-16 05:33N 33°44' W 118°17'0 0.0
2014-Apr-16 04:33N 33°44' W 118°17'0 0.0
2014-Apr-16 03:33N 33°44' W 118°17'3 2.6
2014-Apr-16 02:33N 33°43' W 118°14'2 2.3
2014-Apr-16 01:33N 33°44' W 118°11'2 2.3
2014-Apr-16 00:33N 33°41' W 118°12'5 4.6
2014-Apr-15 23:33N 33°44' W 118°17'3 2.9
2014-Apr-15 22:34N 33°43' W 118°14'2 1.8
2014-Apr-15 21:34N 33°43' W 118°16'0 0.4
2014-Apr-15 20:33N 33°43' W 118°16'1 1.4
2014-Apr-15 19:32N 33°44' W 118°17'0 0.0
2014-Apr-15 18:33N 33°44' W 118°17'0 0.0
2014-Apr-15 16:34N 33°44' W 118°17'0 0.0
2014-Apr-15 15:31N 33°44' W 118°17'0 0.0
2014-Apr-15 14:28N 33°44' W 118°17'0 0.0
2014-Apr-15 12:34N 33°44' W 118°17'1 1.0
2014-Apr-15 11:33N 33°45' W 118°16'3 2.7
2014-Apr-15 10:34N 33°43' W 118°15'0 0.5
2014-Apr-15 09:34N 33°43' W 118°16'1 1.4
2014-Apr-15 08:34N 33°44' W 118°17'0 0.0
2014-Apr-15 07:34N 33°44' W 118°17'0 0.0
2014-Apr-15 06:34N 33°44' W 118°17'0 0.0
2014-Apr-15 05:34N 33°44' W 118°17'0 0.0
2014-Apr-15 03:33N 33°44' W 118°17'0 0.0
2014-Apr-15 02:34N 33°44' W 118°17'1 0.6
2014-Apr-15 00:34N 33°46' W 118°16'1 1.2
2014-Apr-14 23:34N 33°44' W 118°17'3 3.1
2014-Apr-14 22:34N 33°46' W 118°13'0 0.0
2014-Apr-14 21:34N 33°46' W 118°13'3 3.2
2014-Apr-14 20:34N 33°44' W 118°17'0 0.0
2014-Apr-14 19:34N 33°44' W 118°17'0 0.0
2014-Apr-14 18:34N 33°44' W 118°17'  

Dump ship's entire track history

sailing weather and tide predictions

Admiral — WCY6529 — position and weather